Spicewood's Hourly Summary for Friday, May 11, 2018
Hour Temp
(f)
RH
(%)
Solar Rad.
(MJ/m2)
Rainfall
(in)
Wind
(mph)
5/11/2018 12:00 AM 75 77 0 0 8.59
5/11/2018 1:00 AM 72 82 0 0 6.05
5/11/2018 2:00 AM 71 86 0 0 5.73
5/11/2018 3:00 AM 70 86 0 0 6
5/11/2018 4:00 AM 69 86 0 0 5.14
5/11/2018 5:00 AM 69 85 0 0 5.94
5/11/2018 6:00 AM 68 90 0 0 3.74
5/11/2018 7:00 AM 68 90 0.01 0 3.81
5/11/2018 8:00 AM 71 86 0.23 0 4.14
5/11/2018 9:00 AM 75 80 0.64 0 7.22
5/11/2018 10:00 AM 77 66 1.82 0 10.92
5/11/2018 11:00 AM 80 56 1.16 0 10.33
5/11/2018 12:00 PM 81 50 2.99 0 11.17
5/11/2018 1:00 PM 83 48 3.27 0 10.86
5/11/2018 2:00 PM 84 44 3.36 0 10.22
5/11/2018 3:00 PM 86 42 3.33 0 9
5/11/2018 4:00 PM 86 39 2.97 0 9.49
5/11/2018 5:00 PM 87 36 0.75 0 9.81
5/11/2018 6:00 PM 87 36 1.49 0 9
5/11/2018 7:00 PM 87 41 1.05 0 8.47
5/11/2018 8:00 PM 85 44 0.34 0 7.85
5/11/2018 9:00 PM 82 48 0.01 0 5.79
5/11/2018 10:00 PM 79 61 0 0 6.62
5/11/2018 11:00 PM 78 71 0 0 9.27
Data Summary 77 63 23.42 0.00 7.72